sensor_id;sensor_type;location;lat;lon;timestamp;P1;durP1;ratioP1;P2;durP2;ratioP2
5345;SDS011;2695;49.444;11.054;2022-09-03T00:00:55;1.70;;;1.60;;
5345;SDS011;2695;49.444;11.054;2022-09-03T00:03:28;1.57;;;1.43;;
5345;SDS011;2695;49.444;11.054;2022-09-03T00:06:05;2.77;;;1.47;;
5345;SDS011;2695;49.444;11.054;2022-09-03T00:08:41;1.97;;;1.70;;
5345;SDS011;2695;49.444;11.054;2022-09-03T00:11:17;3.70;;;1.37;;
5345;SDS011;2695;49.444;11.054;2022-09-03T00:13:49;2.40;;;1.40;;
5345;SDS011;2695;49.444;11.054;2022-09-03T00:16:24;3.30;;;1.40;;
5345;SDS011;2695;49.444;11.054;2022-09-03T00:19:07;4.03;;;1.67;;
5345;SDS011;2695;49.444;11.054;2022-09-03T00:21:36;1.83;;;1.63;;
5345;SDS011;2695;49.444;11.054;2022-09-03T00:24:08;2.03;;;1.23;;
5345;SDS011;2695;49.444;11.054;2022-09-03T00:26:43;4.23;;;1.50;;
5345;SDS011;2695;49.444;11.054;2022-09-03T00:29:14;1.87;;;1.40;;
5345;SDS011;2695;49.444;11.054;2022-09-03T00:31:46;1.87;;;1.50;;
5345;SDS011;2695;49.444;11.054;2022-09-03T00:34:19;1.97;;;1.30;;
5345;SDS011;2695;49.444;11.054;2022-09-03T00:36:52;6.00;;;1.50;;
5345;SDS011;2695;49.444;11.054;2022-09-03T00:39:22;6.30;;;1.87;;
5345;SDS011;2695;49.444;11.054;2022-09-03T00:41:57;4.43;;;1.37;;
5345;SDS011;2695;49.444;11.054;2022-09-03T00:44:47;5.40;;;1.73;;
5345;SDS011;2695;49.444;11.054;2022-09-03T00:47:29;8.33;;;1.83;;
5345;SDS011;2695;49.444;11.054;2022-09-03T00:50:06;4.83;;;2.00;;
5345;SDS011;2695;49.444;11.054;2022-09-03T00:52:43;4.63;;;1.83;;
5345;SDS011;2695;49.444;11.054;2022-09-03T00:55:25;2.70;;;2.13;;
5345;SDS011;2695;49.444;11.054;2022-09-03T00:58:05;3.23;;;2.00;;
5345;SDS011;2695;49.444;11.054;2022-09-03T01:00:45;10.60;;;2.50;;
5345;SDS011;2695;49.444;11.054;2022-09-03T01:03:16;6.60;;;1.90;;
5345;SDS011;2695;49.444;11.054;2022-09-03T01:05:59;4.03;;;1.53;;
5345;SDS011;2695;49.444;11.054;2022-09-03T01:08:44;9.97;;;1.63;;
5345;SDS011;2695;49.444;11.054;2022-09-03T01:11:23;6.73;;;1.80;;
5345;SDS011;2695;49.444;11.054;2022-09-03T01:14:04;2.87;;;1.93;;
5345;SDS011;2695;49.444;11.054;2022-09-03T01:16:43;2.57;;;1.60;;
5345;SDS011;2695;49.444;11.054;2022-09-03T01:22:24;5.20;;;1.70;;
5345;SDS011;2695;49.444;11.054;2022-09-03T01:25:14;3.87;;;1.93;;
5345;SDS011;2695;49.444;11.054;2022-09-03T01:27:55;2.20;;;1.50;;
5345;SDS011;2695;49.444;11.054;2022-09-03T01:30:28;4.70;;;1.77;;
5345;SDS011;2695;49.444;11.054;2022-09-03T01:33:03;2.03;;;1.63;;
5345;SDS011;2695;49.444;11.054;2022-09-03T01:35:42;4.07;;;1.90;;
5345;SDS011;2695;49.444;11.054;2022-09-03T01:38:16;3.83;;;1.73;;
5345;SDS011;2695;49.444;11.054;2022-09-03T01:40:54;4.93;;;1.87;;
5345;SDS011;2695;49.444;11.054;2022-09-03T01:43:48;2.77;;;1.80;;
5345;SDS011;2695;49.444;11.054;2022-09-03T01:46:25;2.77;;;1.53;;
5345;SDS011;2695;49.444;11.054;2022-09-03T01:48:59;4.07;;;2.30;;
5345;SDS011;2695;49.444;11.054;2022-09-03T01:51:31;5.57;;;2.17;;
5345;SDS011;2695;49.444;11.054;2022-09-03T01:54:15;8.30;;;2.30;;
5345;SDS011;2695;49.444;11.054;2022-09-03T01:57:14;2.30;;;1.60;;
5345;SDS011;2695;49.444;11.054;2022-09-03T02:00:04;1.87;;;1.60;;
5345;SDS011;2695;49.444;11.054;2022-09-03T02:02:35;2.07;;;1.50;;
5345;SDS011;2695;49.444;11.054;2022-09-03T02:05:05;1.97;;;1.20;;
5345;SDS011;2695;49.444;11.054;2022-09-03T02:07:36;1.97;;;1.30;;
5345;SDS011;2695;49.444;11.054;2022-09-03T02:10:06;1.43;;;1.10;;
5345;SDS011;2695;49.444;11.054;2022-09-03T02:12:38;4.47;;;1.57;;
5345;SDS011;2695;49.444;11.054;2022-09-03T02:15:10;2.70;;;1.73;;
5345;SDS011;2695;49.444;11.054;2022-09-03T02:17:40;4.07;;;1.77;;
5345;SDS011;2695;49.444;11.054;2022-09-03T02:20:11;5.53;;;2.20;;
5345;SDS011;2695;49.444;11.054;2022-09-03T02:22:44;6.67;;;1.50;;
5345;SDS011;2695;49.444;11.054;2022-09-03T02:25:14;1.47;;;1.37;;
5345;SDS011;2695;49.444;11.054;2022-09-03T02:27:43;2.40;;;1.70;;
5345;SDS011;2695;49.444;11.054;2022-09-03T02:30:13;7.00;;;1.80;;
5345;SDS011;2695;49.444;11.054;2022-09-03T02:32:41;1.77;;;1.50;;
5345;SDS011;2695;49.444;11.054;2022-09-03T02:35:09;2.10;;;1.70;;
5345;SDS011;2695;49.444;11.054;2022-09-03T02:37:38;2.70;;;1.40;;
5345;SDS011;2695;49.444;11.054;2022-09-03T02:40:07;2.53;;;1.47;;
5345;SDS011;2695;49.444;11.054;2022-09-03T02:42:36;2.40;;;1.90;;
5345;SDS011;2695;49.444;11.054;2022-09-03T02:45:07;2.67;;;1.60;;
5345;SDS011;2695;49.444;11.054;2022-09-03T02:47:46;1.53;;;1.33;;
5345;SDS011;2695;49.444;11.054;2022-09-03T02:50:18;2.23;;;1.57;;
5345;SDS011;2695;49.444;11.054;2022-09-03T02:52:46;1.70;;;1.20;;
5345;SDS011;2695;49.444;11.054;2022-09-03T02:55:14;1.60;;;1.30;;
5345;SDS011;2695;49.444;11.054;2022-09-03T02:57:42;3.93;;;1.60;;
5345;SDS011;2695;49.444;11.054;2022-09-03T03:00:11;1.70;;;1.60;;
5345;SDS011;2695;49.444;11.054;2022-09-03T03:02:41;1.63;;;1.30;;
5345;SDS011;2695;49.444;11.054;2022-09-03T03:05:10;2.13;;;1.20;;
5345;SDS011;2695;49.444;11.054;2022-09-03T03:07:45;2.60;;;1.37;;
5345;SDS011;2695;49.444;11.054;2022-09-03T03:10:13;1.93;;;1.40;;
5345;SDS011;2695;49.444;11.054;2022-09-03T03:12:41;2.97;;;2.07;;
5345;SDS011;2695;49.444;11.054;2022-09-03T03:15:09;5.23;;;1.63;;
5345;SDS011;2695;49.444;11.054;2022-09-03T03:17:38;2.13;;;1.40;;
5345;SDS011;2695;49.444;11.054;2022-09-03T03:20:07;1.47;;;1.37;;
5345;SDS011;2695;49.444;11.054;2022-09-03T03:22:35;3.53;;;1.90;;
5345;SDS011;2695;49.444;11.054;2022-09-03T03:25:03;3.70;;;1.70;;
5345;SDS011;2695;49.444;11.054;2022-09-03T03:27:32;1.90;;;1.50;;
5345;SDS011;2695;49.444;11.054;2022-09-03T03:30:02;1.40;;;1.30;;
5345;SDS011;2695;49.444;11.054;2022-09-03T03:32:32;1.47;;;1.37;;
5345;SDS011;2695;49.444;11.054;2022-09-03T03:35:02;2.70;;;1.83;;
5345;SDS011;2695;49.444;11.054;2022-09-03T03:37:31;3.43;;;1.43;;
5345;SDS011;2695;49.444;11.054;2022-09-03T03:40:00;3.07;;;1.57;;
5345;SDS011;2695;49.444;11.054;2022-09-03T03:42:31;3.03;;;1.73;;
5345;SDS011;2695;49.444;11.054;2022-09-03T03:45:00;3.30;;;1.37;;
5345;SDS011;2695;49.444;11.054;2022-09-03T03:47:28;3.10;;;1.87;;
5345;SDS011;2695;49.444;11.054;2022-09-03T03:49:57;4.63;;;1.90;;
5345;SDS011;2695;49.444;11.054;2022-09-03T03:52:27;2.67;;;2.03;;
5345;SDS011;2695;49.444;11.054;2022-09-03T03:54:55;1.87;;;1.53;;
5345;SDS011;2695;49.444;11.054;2022-09-03T03:57:23;2.40;;;1.63;;
5345;SDS011;2695;49.444;11.054;2022-09-03T03:59:51;1.77;;;1.53;;
5345;SDS011;2695;49.444;11.054;2022-09-03T04:02:19;3.17;;;1.50;;
5345;SDS011;2695;49.444;11.054;2022-09-03T04:04:47;3.17;;;1.53;;
5345;SDS011;2695;49.444;11.054;2022-09-03T04:07:15;2.00;;;1.60;;
5345;SDS011;2695;49.444;11.054;2022-09-03T04:09:44;3.67;;;2.30;;
5345;SDS011;2695;49.444;11.054;2022-09-03T04:12:12;3.97;;;1.90;;
5345;SDS011;2695;49.444;11.054;2022-09-03T04:14:40;2.20;;;1.83;;
5345;SDS011;2695;49.444;11.054;2022-09-03T04:17:08;2.63;;;1.93;;
5345;SDS011;2695;49.444;11.054;2022-09-03T04:19:36;2.20;;;2.00;;
5345;SDS011;2695;49.444;11.054;2022-09-03T04:22:04;1.93;;;1.70;;
5345;SDS011;2695;49.444;11.054;2022-09-03T04:24:32;4.90;;;1.70;;
5345;SDS011;2695;49.444;11.054;2022-09-03T04:27:02;3.27;;;1.80;;
5345;SDS011;2695;49.444;11.054;2022-09-03T04:29:30;3.30;;;1.53;;
5345;SDS011;2695;49.444;11.054;2022-09-03T04:31:58;1.70;;;1.60;;
5345;SDS011;2695;49.444;11.054;2022-09-03T04:34:44;2.57;;;1.63;;
5345;SDS011;2695;49.444;11.054;2022-09-03T04:37:12;3.97;;;1.50;;
5345;SDS011;2695;49.444;11.054;2022-09-03T04:39:41;2.13;;;1.70;;
5345;SDS011;2695;49.444;11.054;2022-09-03T04:42:11;6.33;;;1.73;;
5345;SDS011;2695;49.444;11.054;2022-09-03T04:44:39;2.40;;;1.70;;
5345;SDS011;2695;49.444;11.054;2022-09-03T04:47:07;2.20;;;1.70;;
5345;SDS011;2695;49.444;11.054;2022-09-03T04:49:35;2.47;;;1.83;;
5345;SDS011;2695;49.444;11.054;2022-09-03T04:52:05;1.43;;;1.33;;
5345;SDS011;2695;49.444;11.054;2022-09-03T04:54:33;5.10;;;1.90;;
5345;SDS011;2695;49.444;11.054;2022-09-03T04:57:01;2.73;;;1.90;;
5345;SDS011;2695;49.444;11.054;2022-09-03T04:59:30;3.20;;;1.43;;
5345;SDS011;2695;49.444;11.054;2022-09-03T05:01:58;1.40;;;1.30;;
5345;SDS011;2695;49.444;11.054;2022-09-03T05:04:26;1.20;;;1.03;;
5345;SDS011;2695;49.444;11.054;2022-09-03T05:06:54;2.23;;;1.50;;
5345;SDS011;2695;49.444;11.054;2022-09-03T05:09:22;5.13;;;1.67;;
5345;SDS011;2695;49.444;11.054;2022-09-03T05:11:50;3.30;;;1.67;;
5345;SDS011;2695;49.444;11.054;2022-09-03T05:14:19;1.67;;;1.37;;
5345;SDS011;2695;49.444;11.054;2022-09-03T05:16:48;3.57;;;2.00;;
5345;SDS011;2695;49.444;11.054;2022-09-03T05:19:18;3.90;;;1.40;;
5345;SDS011;2695;49.444;11.054;2022-09-03T05:21:46;6.23;;;1.30;;
5345;SDS011;2695;49.444;11.054;2022-09-03T05:24:14;2.00;;;1.43;;
5345;SDS011;2695;49.444;11.054;2022-09-03T05:26:43;3.70;;;1.53;;
5345;SDS011;2695;49.444;11.054;2022-09-03T05:29:11;3.07;;;1.63;;
5345;SDS011;2695;49.444;11.054;2022-09-03T05:31:41;5.23;;;1.50;;
5345;SDS011;2695;49.444;11.054;2022-09-03T05:34:10;2.10;;;1.90;;
5345;SDS011;2695;49.444;11.054;2022-09-03T05:36:41;2.10;;;1.90;;
5345;SDS011;2695;49.444;11.054;2022-09-03T05:39:12;3.37;;;2.23;;
5345;SDS011;2695;49.444;11.054;2022-09-03T05:41:40;1.90;;;1.27;;
5345;SDS011;2695;49.444;11.054;2022-09-03T05:44:08;1.83;;;1.43;;
5345;SDS011;2695;49.444;11.054;2022-09-03T05:46:37;4.77;;;1.47;;
5345;SDS011;2695;49.444;11.054;2022-09-03T05:49:06;4.37;;;1.80;;
5345;SDS011;2695;49.444;11.054;2022-09-03T05:51:36;2.97;;;1.70;;
5345;SDS011;2695;49.444;11.054;2022-09-03T05:54:05;3.33;;;1.97;;
5345;SDS011;2695;49.444;11.054;2022-09-03T05:56:35;4.40;;;1.70;;
5345;SDS011;2695;49.444;11.054;2022-09-03T05:59:07;1.70;;;1.60;;
5345;SDS011;2695;49.444;11.054;2022-09-03T06:01:42;1.60;;;1.33;;
5345;SDS011;2695;49.444;11.054;2022-09-03T06:04:18;3.80;;;1.90;;
5345;SDS011;2695;49.444;11.054;2022-09-03T06:06:50;5.63;;;2.60;;
5345;SDS011;2695;49.444;11.054;2022-09-03T06:09:19;3.37;;;1.97;;
5345;SDS011;2695;49.444;11.054;2022-09-03T06:11:49;3.60;;;1.93;;
5345;SDS011;2695;49.444;11.054;2022-09-03T06:14:17;3.20;;;1.73;;
5345;SDS011;2695;49.444;11.054;2022-09-03T06:16:46;2.90;;;1.50;;
5345;SDS011;2695;49.444;11.054;2022-09-03T06:19:15;3.57;;;1.40;;
5345;SDS011;2695;49.444;11.054;2022-09-03T06:21:44;6.40;;;2.00;;
5345;SDS011;2695;49.444;11.054;2022-09-03T06:24:17;2.40;;;1.87;;
5345;SDS011;2695;49.444;11.054;2022-09-03T06:26:53;2.10;;;1.42;;
5345;SDS011;2695;49.444;11.054;2022-09-03T06:29:21;1.95;;;1.77;;
5345;SDS011;2695;49.444;11.054;2022-09-03T06:31:49;1.60;;;1.48;;
5345;SDS011;2695;49.444;11.054;2022-09-03T06:34:18;1.92;;;1.35;;
5345;SDS011;2695;49.444;11.054;2022-09-03T06:36:47;2.53;;;1.60;;
5345;SDS011;2695;49.444;11.054;2022-09-03T06:39:21;4.10;;;1.90;;
5345;SDS011;2695;49.444;11.054;2022-09-03T06:41:49;3.90;;;1.83;;
5345;SDS011;2695;49.444;11.054;2022-09-03T06:44:18;2.00;;;1.60;;
5345;SDS011;2695;49.444;11.054;2022-09-03T06:46:46;1.50;;;1.40;;
5345;SDS011;2695;49.444;11.054;2022-09-03T06:49:18;1.70;;;1.60;;
5345;SDS011;2695;49.444;11.054;2022-09-03T06:51:46;2.77;;;1.90;;
5345;SDS011;2695;49.444;11.054;2022-09-03T06:54:14;3.67;;;1.73;;
5345;SDS011;2695;49.444;11.054;2022-09-03T06:56:44;4.20;;;1.30;;
5345;SDS011;2695;49.444;11.054;2022-09-03T06:59:12;3.83;;;1.73;;
5345;SDS011;2695;49.444;11.054;2022-09-03T07:01:41;1.75;;;1.35;;
5345;SDS011;2695;49.444;11.054;2022-09-03T07:04:12;1.98;;;1.27;;
5345;SDS011;2695;49.444;11.054;2022-09-03T07:06:45;1.95;;;1.58;;
5345;SDS011;2695;49.444;11.054;2022-09-03T07:09:14;1.95;;;1.40;;
5345;SDS011;2695;49.444;11.054;2022-09-03T07:11:45;3.40;;;1.67;;
5345;SDS011;2695;49.444;11.054;2022-09-03T07:14:15;5.85;;;1.60;;
5345;SDS011;2695;49.444;11.054;2022-09-03T07:16:44;8.13;;;1.40;;
5345;SDS011;2695;49.444;11.054;2022-09-03T07:19:13;2.47;;;1.67;;
5345;SDS011;2695;49.444;11.054;2022-09-03T07:21:42;2.75;;;1.52;;
5345;SDS011;2695;49.444;11.054;2022-09-03T07:24:16;1.85;;;1.30;;
5345;SDS011;2695;49.444;11.054;2022-09-03T07:26:46;2.47;;;1.33;;
5345;SDS011;2695;49.444;11.054;2022-09-03T07:29:14;2.15;;;1.50;;
5345;SDS011;2695;49.444;11.054;2022-09-03T07:31:46;2.00;;;1.60;;
5345;SDS011;2695;49.444;11.054;2022-09-03T07:34:19;1.60;;;1.50;;
5345;SDS011;2695;49.444;11.054;2022-09-03T07:36:51;2.15;;;1.60;;
5345;SDS011;2695;49.444;11.054;2022-09-03T07:39:20;1.60;;;1.50;;
5345;SDS011;2695;49.444;11.054;2022-09-03T07:41:50;2.00;;;1.58;;
5345;SDS011;2695;49.444;11.054;2022-09-03T07:44:19;3.13;;;1.43;;
5345;SDS011;2695;49.444;11.054;2022-09-03T07:46:49;1.83;;;1.30;;
5345;SDS011;2695;49.444;11.054;2022-09-03T07:49:18;1.80;;;1.50;;
5345;SDS011;2695;49.444;11.054;2022-09-03T07:51:47;2.27;;;1.40;;
5345;SDS011;2695;49.444;11.054;2022-09-03T07:54:18;5.43;;;1.60;;
5345;SDS011;2695;49.444;11.054;2022-09-03T07:56:50;3.23;;;1.47;;
5345;SDS011;2695;49.444;11.054;2022-09-03T07:59:18;6.53;;;1.30;;
5345;SDS011;2695;49.444;11.054;2022-09-03T08:01:48;2.17;;;1.57;;
5345;SDS011;2695;49.444;11.054;2022-09-03T08:04:16;2.40;;;1.60;;
5345;SDS011;2695;49.444;11.054;2022-09-03T08:06:45;1.55;;;1.38;;
5345;SDS011;2695;49.444;11.054;2022-09-03T08:09:14;2.72;;;1.38;;
5345;SDS011;2695;49.444;11.054;2022-09-03T08:11:42;1.80;;;1.50;;
5345;SDS011;2695;49.444;11.054;2022-09-03T08:14:12;4.50;;;1.20;;
5345;SDS011;2695;49.444;11.054;2022-09-03T08:16:42;2.97;;;1.30;;
5345;SDS011;2695;49.444;11.054;2022-09-03T08:19:12;2.35;;;1.58;;
5345;SDS011;2695;49.444;11.054;2022-09-03T08:21:40;1.73;;;1.40;;
5345;SDS011;2695;49.444;11.054;2022-09-03T08:24:09;4.00;;;1.77;;
5345;SDS011;2695;49.444;11.054;2022-09-03T08:26:38;1.40;;;1.30;;
5345;SDS011;2695;49.444;11.054;2022-09-03T08:29:18;2.53;;;1.23;;
5345;SDS011;2695;49.444;11.054;2022-09-03T08:31:48;4.00;;;1.60;;
5345;SDS011;2695;49.444;11.054;2022-09-03T08:34:16;2.33;;;1.27;;
5345;SDS011;2695;49.444;11.054;2022-09-03T08:36:44;4.35;;;1.20;;
5345;SDS011;2695;49.444;11.054;2022-09-03T08:39:13;5.10;;;1.30;;
5345;SDS011;2695;49.444;11.054;2022-09-03T08:41:47;2.55;;;1.13;;
5345;SDS011;2695;49.444;11.054;2022-09-03T08:44:29;1.98;;;1.60;;
5345;SDS011;2695;49.444;11.054;2022-09-03T08:46:59;1.30;;;1.20;;
5345;SDS011;2695;49.444;11.054;2022-09-03T08:49:34;3.20;;;1.40;;
5345;SDS011;2695;49.444;11.054;2022-09-03T08:52:13;3.20;;;1.40;;
5345;SDS011;2695;49.444;11.054;2022-09-03T08:54:49;1.87;;;1.30;;
5345;SDS011;2695;49.444;11.054;2022-09-03T08:57:22;1.43;;;1.33;;
5345;SDS011;2695;49.444;11.054;2022-09-03T08:59:53;2.23;;;1.10;;
5345;SDS011;2695;49.444;11.054;2022-09-03T09:02:24;4.93;;;1.80;;
5345;SDS011;2695;49.444;11.054;2022-09-03T09:05:02;9.37;;;1.63;;
5345;SDS011;2695;49.444;11.054;2022-09-03T09:07:41;1.83;;;1.50;;
5345;SDS011;2695;49.444;11.054;2022-09-03T09:10:15;2.73;;;1.40;;
5345;SDS011;2695;49.444;11.054;2022-09-03T09:12:55;2.63;;;1.90;;
5345;SDS011;2695;49.444;11.054;2022-09-03T09:15:34;1.70;;;1.10;;
5345;SDS011;2695;49.444;11.054;2022-09-03T09:18:17;3.13;;;1.58;;
5345;SDS011;2695;49.444;11.054;2022-09-03T09:20:50;5.03;;;1.15;;
5345;SDS011;2695;49.444;11.054;2022-09-03T09:23:23;3.30;;;1.40;;
5345;SDS011;2695;49.444;11.054;2022-09-03T09:25:56;1.17;;;1.05;;
5345;SDS011;2695;49.444;11.054;2022-09-03T09:28:29;1.95;;;1.50;;
5345;SDS011;2695;49.444;11.054;2022-09-03T09:31:03;3.83;;;1.05;;
5345;SDS011;2695;49.444;11.054;2022-09-03T09:33:33;2.00;;;1.30;;
5345;SDS011;2695;49.444;11.054;2022-09-03T09:39:52;2.65;;;1.30;;
5345;SDS011;2695;49.444;11.054;2022-09-03T09:42:33;1.73;;;1.63;;
5345;SDS011;2695;49.444;11.054;2022-09-03T09:45:07;1.60;;;1.50;;
5345;SDS011;2695;49.444;11.054;2022-09-03T09:47:38;1.63;;;1.33;;
5345;SDS011;2695;49.444;11.054;2022-09-03T09:50:15;2.10;;;1.45;;
5345;SDS011;2695;49.444;11.054;2022-09-03T09:52:58;4.10;;;1.40;;
5345;SDS011;2695;49.444;11.054;2022-09-03T09:55:33;1.98;;;1.23;;
5345;SDS011;2695;49.444;11.054;2022-09-03T09:58:20;3.05;;;1.50;;
5345;SDS011;2695;49.444;11.054;2022-09-03T10:00:56;1.75;;;1.50;;
5345;SDS011;2695;49.444;11.054;2022-09-03T10:03:33;1.67;;;1.40;;
5345;SDS011;2695;49.444;11.054;2022-09-03T10:06:05;2.67;;;1.20;;
5345;SDS011;2695;49.444;11.054;2022-09-03T10:08:53;2.25;;;1.67;;
5345;SDS011;2695;49.444;11.054;2022-09-03T10:11:33;2.08;;;1.40;;
5345;SDS011;2695;49.444;11.054;2022-09-03T10:14:07;3.72;;;1.30;;
5345;SDS011;2695;49.444;11.054;2022-09-03T10:16:42;3.03;;;1.33;;
5345;SDS011;2695;49.444;11.054;2022-09-03T10:19:19;2.65;;;1.65;;
5345;SDS011;2695;49.444;11.054;2022-09-03T10:21:52;3.58;;;1.95;;
5345;SDS011;2695;49.444;11.054;2022-09-03T10:24:31;3.10;;;1.58;;
5345;SDS011;2695;49.444;11.054;2022-09-03T10:27:06;1.30;;;1.20;;
5345;SDS011;2695;49.444;11.054;2022-09-03T10:29:38;1.40;;;1.23;;
5345;SDS011;2695;49.444;11.054;2022-09-03T10:32:11;2.45;;;1.38;;
5345;SDS011;2695;49.444;11.054;2022-09-03T10:34:56;3.22;;;1.40;;
5345;SDS011;2695;49.444;11.054;2022-09-03T10:37:36;1.85;;;1.50;;
5345;SDS011;2695;49.444;11.054;2022-09-03T10:40:13;2.97;;;1.60;;
5345;SDS011;2695;49.444;11.054;2022-09-03T10:42:59;3.53;;;1.30;;
5345;SDS011;2695;49.444;11.054;2022-09-03T10:45:48;4.43;;;1.52;;
5345;SDS011;2695;49.444;11.054;2022-09-03T10:48:32;1.50;;;1.30;;
5345;SDS011;2695;49.444;11.054;2022-09-03T10:51:13;2.65;;;1.90;;
5345;SDS011;2695;49.444;11.054;2022-09-03T10:53:52;2.03;;;1.63;;
5345;SDS011;2695;49.444;11.054;2022-09-03T10:56:31;2.17;;;1.90;;
5345;SDS011;2695;49.444;11.054;2022-09-03T10:59:09;2.28;;;1.73;;
5345;SDS011;2695;49.444;11.054;2022-09-03T11:01:56;3.15;;;2.00;;
5345;SDS011;2695;49.444;11.054;2022-09-03T11:04:37;3.00;;;1.70;;
5345;SDS011;2695;49.444;11.054;2022-09-03T11:07:33;7.28;;;1.88;;
5345;SDS011;2695;49.444;11.054;2022-09-03T11:10:06;4.10;;;1.90;;
5345;SDS011;2695;49.444;11.054;2022-09-03T11:12:42;2.80;;;1.67;;
5345;SDS011;2695;49.444;11.054;2022-09-03T11:15:14;2.30;;;1.90;;
5345;SDS011;2695;49.444;11.054;2022-09-03T11:17:53;2.47;;;1.88;;
5345;SDS011;2695;49.444;11.054;2022-09-03T11:20:27;4.22;;;1.80;;
5345;SDS011;2695;49.444;11.054;2022-09-03T11:22:58;2.92;;;2.20;;
5345;SDS011;2695;49.444;11.054;2022-09-03T11:25:30;3.88;;;2.35;;
5345;SDS011;2695;49.444;11.054;2022-09-03T11:28:02;2.65;;;2.03;;
5345;SDS011;2695;49.444;11.054;2022-09-03T11:30:39;1.83;;;1.73;;
5345;SDS011;2695;49.444;11.054;2022-09-03T11:37:14;1.83;;;1.73;;
5345;SDS011;2695;49.444;11.054;2022-09-03T11:39:51;2.80;;;2.20;;
5345;SDS011;2695;49.444;11.054;2022-09-03T11:42:26;5.90;;;2.72;;
5345;SDS011;2695;49.444;11.054;2022-09-03T11:45:11;2.75;;;1.98;;
5345;SDS011;2695;49.444;11.054;2022-09-03T11:47:41;5.07;;;2.40;;
5345;SDS011;2695;49.444;11.054;2022-09-03T11:50:16;2.67;;;2.10;;
5345;SDS011;2695;49.444;11.054;2022-09-03T11:52:47;3.08;;;1.73;;
5345;SDS011;2695;49.444;11.054;2022-09-03T11:55:25;5.05;;;2.42;;
5345;SDS011;2695;49.444;11.054;2022-09-03T11:58:10;1.80;;;1.70;;
5345;SDS011;2695;49.444;11.054;2022-09-03T12:00:39;2.30;;;2.10;;
5345;SDS011;2695;49.444;11.054;2022-09-03T12:03:11;3.25;;;2.28;;
5345;SDS011;2695;49.444;11.054;2022-09-03T12:05:48;2.60;;;2.10;;
5345;SDS011;2695;49.444;11.054;2022-09-03T12:11:33;4.40;;;2.47;;
5345;SDS011;2695;49.444;11.054;2022-09-03T12:14:11;5.88;;;2.05;;
5345;SDS011;2695;49.444;11.054;2022-09-03T12:19:31;2.42;;;2.15;;
5345;SDS011;2695;49.444;11.054;2022-09-03T12:22:04;2.20;;;2.00;;
5345;SDS011;2695;49.444;11.054;2022-09-03T12:24:32;4.60;;;2.42;;
5345;SDS011;2695;49.444;11.054;2022-09-03T12:27:03;6.45;;;2.47;;
5345;SDS011;2695;49.444;11.054;2022-09-03T12:29:33;3.83;;;2.33;;
5345;SDS011;2695;49.444;11.054;2022-09-03T12:32:05;3.30;;;2.08;;
5345;SDS011;2695;49.444;11.054;2022-09-03T12:34:36;2.15;;;1.95;;
5345;SDS011;2695;49.444;11.054;2022-09-03T12:37:13;2.90;;;2.05;;
5345;SDS011;2695;49.444;11.054;2022-09-03T12:40:14;2.65;;;2.10;;
5345;SDS011;2695;49.444;11.054;2022-09-03T12:42:44;2.50;;;2.30;;
5345;SDS011;2695;49.444;11.054;2022-09-03T12:45:12;2.22;;;2.00;;
5345;SDS011;2695;49.444;11.054;2022-09-03T12:47:42;3.35;;;2.15;;
5345;SDS011;2695;49.444;11.054;2022-09-03T12:50:12;2.20;;;1.80;;
5345;SDS011;2695;49.444;11.054;2022-09-03T12:52:43;3.25;;;2.15;;
5345;SDS011;2695;49.444;11.054;2022-09-03T12:55:18;5.15;;;2.55;;
5345;SDS011;2695;49.444;11.054;2022-09-03T12:57:54;5.15;;;3.05;;
5345;SDS011;2695;49.444;11.054;2022-09-03T13:00:37;3.92;;;2.05;;
5345;SDS011;2695;49.444;11.054;2022-09-03T13:03:09;3.08;;;1.85;;
5345;SDS011;2695;49.444;11.054;2022-09-03T13:05:57;5.57;;;2.33;;
5345;SDS011;2695;49.444;11.054;2022-09-03T13:08:28;4.15;;;2.38;;
5345;SDS011;2695;49.444;11.054;2022-09-03T13:11:00;2.92;;;2.10;;
5345;SDS011;2695;49.444;11.054;2022-09-03T13:13:30;5.07;;;2.55;;
5345;SDS011;2695;49.444;11.054;2022-09-03T13:16:06;2.42;;;2.10;;
5345;SDS011;2695;49.444;11.054;2022-09-03T13:18:45;3.10;;;2.72;;
5345;SDS011;2695;49.444;11.054;2022-09-03T13:21:27;2.28;;;2.08;;
5345;SDS011;2695;49.444;11.054;2022-09-03T13:24:15;2.30;;;2.10;;
5345;SDS011;2695;49.444;11.054;2022-09-03T13:26:57;6.32;;;2.00;;
5345;SDS011;2695;49.444;11.054;2022-09-03T13:29:36;2.40;;;2.20;;
5345;SDS011;2695;49.444;11.054;2022-09-03T13:32:10;3.93;;;2.40;;
5345;SDS011;2695;49.444;11.054;2022-09-03T13:34:51;4.25;;;2.45;;
5345;SDS011;2695;49.444;11.054;2022-09-03T13:37:26;2.37;;;2.03;;
5345;SDS011;2695;49.444;11.054;2022-09-03T13:40:02;5.87;;;2.50;;
5345;SDS011;2695;49.444;11.054;2022-09-03T13:42:42;4.97;;;2.87;;
5345;SDS011;2695;49.444;11.054;2022-09-03T13:45:25;2.87;;;2.57;;
5345;SDS011;2695;49.444;11.054;2022-09-03T13:47:58;3.83;;;2.20;;
5345;SDS011;2695;49.444;11.054;2022-09-03T13:50:50;3.60;;;2.50;;
5345;SDS011;2695;49.444;11.054;2022-09-03T13:53:31;2.45;;;2.05;;
5345;SDS011;2695;49.444;11.054;2022-09-03T13:56:14;5.38;;;2.60;;
5345;SDS011;2695;49.444;11.054;2022-09-03T13:58:52;5.90;;;2.10;;
5345;SDS011;2695;49.444;11.054;2022-09-03T14:01:32;6.38;;;3.33;;
5345;SDS011;2695;49.444;11.054;2022-09-03T14:04:39;3.67;;;2.47;;
5345;SDS011;2695;49.444;11.054;2022-09-03T14:07:20;3.80;;;2.67;;
5345;SDS011;2695;49.444;11.054;2022-09-03T14:10:18;4.80;;;2.87;;
5345;SDS011;2695;49.444;11.054;2022-09-03T14:12:52;4.50;;;2.60;;
5345;SDS011;2695;49.444;11.054;2022-09-03T14:15:29;3.50;;;3.20;;
5345;SDS011;2695;49.444;11.054;2022-09-03T14:18:02;3.87;;;2.60;;
5345;SDS011;2695;49.444;11.054;2022-09-03T14:20:40;5.30;;;2.70;;
5345;SDS011;2695;49.444;11.054;2022-09-03T14:23:19;4.97;;;2.40;;
5345;SDS011;2695;49.444;11.054;2022-09-03T14:25:54;3.43;;;2.43;;
5345;SDS011;2695;49.444;11.054;2022-09-03T14:28:27;8.40;;;3.00;;
5345;SDS011;2695;49.444;11.054;2022-09-03T14:31:00;7.07;;;2.00;;
5345;SDS011;2695;49.444;11.054;2022-09-03T14:33:37;5.43;;;2.87;;
5345;SDS011;2695;49.444;11.054;2022-09-03T14:36:13;4.83;;;3.23;;
5345;SDS011;2695;49.444;11.054;2022-09-03T14:45:39;4.07;;;2.43;;
5345;SDS011;2695;49.444;11.054;2022-09-03T14:48:33;3.50;;;2.87;;
5345;SDS011;2695;49.444;11.054;2022-09-03T14:51:20;4.33;;;2.23;;
5345;SDS011;2695;49.444;11.054;2022-09-03T14:54:05;4.07;;;2.60;;
5345;SDS011;2695;49.444;11.054;2022-09-03T14:56:44;3.50;;;2.33;;
5345;SDS011;2695;49.444;11.054;2022-09-03T14:59:27;11.93;;;2.80;;
5345;SDS011;2695;49.444;11.054;2022-09-03T15:02:14;3.40;;;2.80;;
5345;SDS011;2695;49.444;11.054;2022-09-03T15:05:02;4.53;;;2.70;;
5345;SDS011;2695;49.444;11.054;2022-09-03T15:07:40;12.97;;;2.80;;
5345;SDS011;2695;49.444;11.054;2022-09-03T15:10:14;6.53;;;3.30;;
5345;SDS011;2695;49.444;11.054;2022-09-03T15:12:47;10.10;;;3.07;;
5345;SDS011;2695;49.444;11.054;2022-09-03T15:15:18;5.30;;;2.73;;
5345;SDS011;2695;49.444;11.054;2022-09-03T15:17:56;5.87;;;2.47;;
5345;SDS011;2695;49.444;11.054;2022-09-03T15:20:31;7.33;;;2.90;;
5345;SDS011;2695;49.444;11.054;2022-09-03T15:23:22;5.67;;;3.23;;
5345;SDS011;2695;49.444;11.054;2022-09-03T15:26:03;6.27;;;4.13;;
5345;SDS011;2695;49.444;11.054;2022-09-03T15:28:58;3.90;;;2.60;;
5345;SDS011;2695;49.444;11.054;2022-09-03T15:31:36;5.00;;;3.10;;
5345;SDS011;2695;49.444;11.054;2022-09-03T15:34:16;2.87;;;2.67;;
5345;SDS011;2695;49.444;11.054;2022-09-03T15:36:56;2.90;;;2.60;;
5345;SDS011;2695;49.444;11.054;2022-09-03T15:39:33;2.83;;;2.50;;
5345;SDS011;2695;49.444;11.054;2022-09-03T15:42:06;2.37;;;2.17;;
5345;SDS011;2695;49.444;11.054;2022-09-03T15:44:40;4.07;;;2.23;;
5345;SDS011;2695;49.444;11.054;2022-09-03T15:47:27;3.07;;;2.77;;
5345;SDS011;2695;49.444;11.054;2022-09-03T15:50:23;2.97;;;2.67;;
5345;SDS011;2695;49.444;11.054;2022-09-03T15:53:01;2.47;;;2.27;;
5345;SDS011;2695;49.444;11.054;2022-09-03T15:55:33;3.90;;;2.50;;
5345;SDS011;2695;49.444;11.054;2022-09-03T15:58:05;3.07;;;2.30;;
5345;SDS011;2695;49.444;11.054;2022-09-03T16:00:49;4.63;;;3.07;;
5345;SDS011;2695;49.444;11.054;2022-09-03T16:03:21;3.70;;;3.27;;
5345;SDS011;2695;49.444;11.054;2022-09-03T16:06:01;2.97;;;2.77;;